Terminal Aerodrome Forecast
Issued by NWS

Home | Current Version | Previous Version | Text Only | Print | Product List | Glossary On
Versions: 1 2 3 4 5 6 7 8 9 10 11 12 13 14 15 16 17 18 19 20
000
FTUS46 KSGX 240849 AAA
TAFCRQ
TAF AMD
KCRQ 240849Z 2409/2506 VRB04KT P6SM OVC006
     FM241600 VRB04KT P6SM BKN009
     FM241900 26007KT P6SM FEW010 SCT150
     FM250100 VRB04KT P6SM OVC006=

USA.gov is the U.S. government's official web portal to all federal, state and local government web resources and services.